Terminal Aerodrome Forecast
Issued by NWS Pittsburgh, PA

Current Version | Previous Version | Graphics & Text | Print | Product List | Glossary On
Versions: 1 2 3 4 5 6 7 8 9 10 11 12 13 14 15 16 17 18 19 20 21 22 23 24 25 26
078
FTUS41 KPBZ 231720
TAFPIT
TAF
KPIT 231720Z 2318/2424 11005KT P6SM SKC
     FM240700 15005KT P6SM VCSH BKN100 WS020/20040KT
     FM241300 19008G15KT P6SM BKN045
     FM242200 22010KT P6SM BKN035=

USA.gov is the U.S. government's official web portal to all federal, state and local government web resources and services.